createdAt,value
2019-01-26T00:00:16.299Z,5.20
2019-01-26T00:02:43.032Z,5.33
2019-01-26T00:05:09.796Z,5.27
2019-01-26T00:07:36.213Z,4.90
2019-01-26T00:10:04.891Z,4.90
2019-01-26T00:12:31.332Z,4.60
2019-01-26T00:14:57.753Z,4.70
2019-01-26T00:17:24.199Z,4.77
2019-01-26T00:19:50.927Z,4.70
2019-01-26T00:22:17.343Z,4.83
2019-01-26T00:24:43.796Z,4.87
2019-01-26T00:27:10.216Z,4.90
2019-01-26T00:29:36.666Z,5.03
2019-01-26T00:32:03.083Z,5.10
2019-01-26T00:34:29.523Z,5.30
2019-01-26T00:36:55.940Z,6.03
2019-01-26T00:39:22.686Z,5.53
2019-01-26T00:41:49.427Z,5.10
2019-01-26T00:44:15.839Z,4.70
2019-01-26T00:46:42.283Z,5.07
2019-01-26T00:49:08.695Z,4.90
2019-01-26T00:51:35.113Z,5.40
2019-01-26T00:54:01.563Z,4.97
2019-01-26T00:56:27.975Z,5.23
2019-01-26T00:58:54.445Z,4.97
2019-01-26T01:01:20.979Z,5.87
2019-01-26T01:03:47.393Z,4.47
2019-01-26T01:06:14.159Z,5.00
2019-01-26T01:08:40.575Z,4.60
2019-01-26T01:11:07.028Z,5.03
2019-01-26T01:13:33.441Z,5.00
2019-01-26T01:15:59.851Z,4.37
2019-01-26T01:18:26.627Z,5.13
2019-01-26T01:20:53.395Z,4.97
2019-01-26T01:23:19.916Z,5.00
2019-01-26T01:25:46.337Z,5.03
2019-01-26T01:28:12.751Z,4.40
2019-01-26T01:30:39.195Z,4.20
2019-01-26T01:33:05.936Z,4.23
2019-01-26T01:35:32.389Z,4.53
2019-01-26T01:37:58.847Z,4.87
2019-01-26T01:40:25.549Z,4.40
2019-01-26T01:42:51.960Z,4.40
2019-01-26T01:45:19.519Z,4.20
2019-01-26T01:47:45.998Z,5.07
2019-01-26T01:50:13.630Z,4.43
2019-01-26T01:52:40.117Z,4.30
2019-01-26T01:55:09.405Z,4.57
2019-01-26T01:57:35.815Z,4.40
2019-01-26T02:00:04.476Z,4.60
2019-01-26T02:02:30.891Z,5.00
2019-01-26T02:04:57.309Z,4.60
2019-01-26T02:07:23.777Z,4.93
2019-01-26T02:09:50.194Z,4.83
2019-01-26T02:12:16.945Z,4.13
2019-01-26T02:14:43.399Z,4.27
2019-01-26T02:17:10.115Z,4.60
2019-01-26T02:19:36.526Z,4.27
2019-01-26T02:22:03.308Z,4.40
2019-01-26T02:24:29.840Z,3.83
2019-01-26T02:26:56.256Z,4.60
2019-01-26T02:29:22.667Z,4.33
2019-01-26T02:31:49.424Z,3.73
2019-01-26T02:34:15.839Z,4.03
2019-01-26T02:36:42.598Z,3.70
2019-01-26T02:39:09.083Z,4.30
2019-01-26T02:41:35.544Z,4.17
2019-01-26T02:44:01.995Z,4.43
2019-01-26T02:46:28.732Z,4.13
2019-01-26T02:48:55.475Z,3.80
2019-01-26T02:51:21.936Z,4.27
2019-01-26T02:53:48.348Z,3.80
2019-01-26T02:56:14.756Z,3.70
2019-01-26T02:58:41.541Z,4.00
2019-01-26T03:01:08.367Z,3.70
2019-01-26T03:03:35.091Z,3.50
2019-01-26T03:06:01.555Z,3.90
2019-01-26T03:08:28.259Z,3.33
2019-01-26T03:10:54.681Z,3.53
2019-01-26T03:13:21.114Z,3.63
2019-01-26T03:15:47.548Z,3.83
2019-01-26T03:18:13.987Z,3.87
2019-01-26T03:20:40.468Z,3.37
2019-01-26T03:23:06.882Z,3.13
2019-01-26T03:25:33.596Z,4.17
2019-01-26T03:28:00.331Z,3.50
2019-01-26T03:30:26.799Z,3.07
2019-01-26T03:32:53.213Z,3.83
2019-01-26T03:35:19.935Z,3.70
2019-01-26T03:37:46.702Z,3.27
2019-01-26T03:40:14.634Z,3.50
2019-01-26T03:42:41.039Z,3.50
2019-01-26T03:45:08.456Z,3.83
2019-01-26T03:47:34.906Z,3.27
2019-01-26T03:50:02.323Z,3.13
2019-01-26T03:52:29.069Z,3.33
2019-01-26T03:54:55.620Z,3.00
2019-01-26T03:57:22.032Z,2.80
2019-01-26T03:59:48.764Z,3.30
2019-01-26T04:02:15.239Z,2.90
2019-01-26T04:04:41.659Z,3.67
2019-01-26T04:07:08.072Z,3.20
2019-01-26T04:09:34.532Z,2.73
2019-01-26T04:12:00.946Z,2.80
2019-01-26T04:14:27.360Z,3.10
2019-01-26T04:16:53.804Z,2.40
2019-01-26T04:19:20.268Z,2.77
2019-01-26T04:21:46.960Z,2.60
2019-01-26T04:24:13.376Z,2.97
2019-01-26T04:26:39.920Z,2.90
2019-01-26T04:29:06.335Z,2.70
2019-01-26T04:31:32.784Z,2.60
2019-01-26T04:33:59.196Z,3.13
2019-01-26T04:36:25.620Z,2.43
2019-01-26T04:38:52.069Z,3.30
2019-01-26T04:41:18.479Z,2.80
2019-01-26T04:43:44.898Z,2.50
2019-01-26T04:46:11.346Z,2.37
2019-01-26T04:48:38.026Z,2.90
2019-01-26T04:51:04.439Z,2.73
2019-01-26T04:53:31.196Z,2.83
2019-01-26T04:55:57.608Z,2.10
2019-01-26T04:58:24.264Z,3.10
2019-01-26T05:00:50.707Z,2.47
2019-01-26T05:03:17.157Z,2.20
2019-01-26T05:05:43.868Z,2.27
2019-01-26T05:08:10.332Z,2.27
2019-01-26T05:10:36.748Z,2.80
2019-01-26T05:13:03.472Z,2.57
2019-01-26T05:15:29.928Z,2.20
2019-01-26T05:17:56.339Z,2.47
2019-01-26T05:20:24.187Z,2.33
2019-01-26T05:22:51.067Z,2.10
2019-01-26T05:25:17.558Z,2.13
2019-01-26T05:27:43.977Z,2.10
2019-01-26T05:30:12.596Z,2.60
2019-01-26T05:32:39.007Z,1.93
2019-01-26T05:35:05.509Z,2.80
2019-01-26T05:37:31.911Z,2.20
2019-01-26T05:39:58.367Z,2.47
2019-01-26T05:42:24.773Z,2.30
2019-01-26T05:44:51.223Z,2.30
2019-01-26T05:47:17.939Z,1.93
2019-01-26T05:49:44.663Z,2.27
2019-01-26T05:52:11.144Z,2.83
2019-01-26T05:54:37.555Z,1.90
2019-01-26T05:57:03.976Z,2.17
2019-01-26T05:59:30.423Z,2.30
2019-01-26T06:01:56.866Z,2.07
2019-01-26T06:04:23.288Z,2.00
2019-01-26T06:06:49.748Z,1.93
2019-01-26T06:09:16.157Z,2.30
2019-01-26T06:11:42.603Z,2.20
2019-01-26T06:14:09.295Z,2.10
2019-01-26T06:16:35.708Z,2.00
2019-01-26T06:19:02.359Z,2.77
2019-01-26T06:21:28.803Z,1.83
2019-01-26T06:23:55.224Z,1.87
2019-01-26T06:26:21.627Z,1.73
2019-01-26T06:28:48.076Z,1.87
2019-01-26T06:31:14.488Z,1.77
2019-01-26T06:33:41.268Z,2.07
2019-01-26T06:36:08.005Z,1.50
2019-01-26T06:38:34.419Z,2.00
2019-01-26T06:41:00.863Z,2.07
2019-01-26T06:43:27.276Z,2.00
2019-01-26T06:45:53.728Z,2.23
2019-01-26T06:48:20.140Z,1.80
2019-01-26T06:50:46.903Z,2.20
2019-01-26T06:53:13.515Z,1.93
2019-01-26T06:55:39.933Z,1.90
2019-01-26T06:58:06.718Z,1.70
2019-01-26T07:00:33.131Z,1.90
2019-01-26T07:02:59.983Z,1.73
2019-01-26T07:05:28.299Z,2.00
2019-01-26T07:07:55.001Z,1.97
2019-01-26T07:10:21.415Z,1.77
2019-01-26T07:12:47.832Z,2.03
2019-01-26T07:15:15.679Z,2.13
2019-01-26T07:17:42.363Z,2.10
2019-01-26T07:20:10.745Z,2.20
2019-01-26T07:22:37.483Z,2.20
2019-01-26T07:25:04.704Z,1.87
2019-01-26T07:27:31.168Z,1.83
2019-01-26T07:29:57.907Z,2.23
2019-01-26T07:32:24.324Z,1.80
2019-01-26T07:34:50.805Z,1.90
2019-01-26T07:37:17.211Z,1.97
2019-01-26T07:39:43.944Z,2.07
2019-01-26T07:42:10.360Z,2.00
2019-01-26T07:44:37.111Z,2.37
2019-01-26T07:47:03.852Z,2.13
2019-01-26T07:49:30.268Z,2.10
2019-01-26T07:51:56.748Z,2.00
2019-01-26T07:54:23.454Z,2.13
2019-01-26T07:56:49.871Z,2.10
2019-01-26T07:59:16.343Z,1.80
2019-01-26T08:01:43.060Z,1.63
2019-01-26T08:04:10.203Z,1.80
2019-01-26T08:06:37.765Z,2.30
2019-01-26T08:09:05.536Z,2.10
2019-01-26T08:11:32.023Z,1.70
2019-01-26T08:13:58.699Z,1.80
2019-01-26T08:16:25.442Z,1.87
2019-01-26T08:18:52.033Z,1.90
2019-01-26T08:21:18.450Z,1.80
2019-01-26T08:23:47.911Z,1.93
2019-01-26T08:26:14.364Z,1.80
2019-01-26T08:28:41.083Z,1.67
2019-01-26T08:31:07.571Z,1.70
2019-01-26T08:33:33.988Z,1.60
2019-01-26T08:36:01.198Z,2.10
2019-01-26T08:38:28.911Z,2.10
2019-01-26T08:40:55.622Z,2.07
2019-01-26T08:43:22.240Z,2.17
2019-01-26T08:45:48.667Z,2.50
2019-01-26T08:48:15.108Z,1.80
2019-01-26T08:50:41.696Z,1.87
2019-01-26T08:53:08.116Z,1.50
2019-01-26T08:55:34.604Z,1.77
2019-01-26T08:58:01.015Z,1.70
2019-01-26T09:00:27.784Z,2.30
2019-01-26T09:02:56.161Z,1.50
2019-01-26T09:05:27.539Z,1.77
2019-01-26T09:07:54.239Z,1.97
2019-01-26T09:10:20.715Z,1.70
2019-01-26T09:12:47.412Z,1.93
2019-01-26T09:15:13.828Z,1.60
2019-01-26T09:17:40.579Z,1.87
2019-01-26T09:20:11.766Z,1.70
2019-01-26T09:22:38.663Z,1.73
2019-01-26T09:25:07.080Z,2.00
2019-01-26T09:27:35.965Z,1.60
2019-01-26T09:30:04.358Z,1.90
2019-01-26T09:32:30.799Z,1.70
2019-01-26T09:34:57.853Z,1.47
2019-01-26T09:37:27.091Z,2.00
2019-01-26T09:39:53.522Z,1.50
2019-01-26T09:42:20.023Z,2.20
2019-01-26T09:44:46.444Z,2.00
2019-01-26T09:47:13.127Z,2.30
2019-01-26T09:49:39.640Z,1.70
2019-01-26T09:52:06.607Z,1.57
2019-01-26T09:54:36.227Z,2.03
2019-01-26T09:57:04.896Z,1.80
2019-01-26T09:59:31.635Z,2.00
2019-01-26T10:01:58.379Z,1.70
2019-01-26T10:04:26.035Z,1.90
2019-01-26T10:06:52.592Z,1.90
2019-01-26T10:09:19.524Z,2.23
2019-01-26T10:11:46.358Z,1.90
2019-01-26T10:14:13.879Z,2.23
2019-01-26T10:16:40.451Z,2.20
2019-01-26T10:19:07.186Z,1.77
2019-01-26T10:21:33.795Z,2.50
2019-01-26T10:24:00.667Z,2.37
2019-01-26T10:26:28.932Z,2.10
2019-01-26T10:28:58.415Z,2.10
2019-01-26T10:31:25.948Z,2.27
2019-01-26T10:33:52.516Z,2.83
2019-01-26T10:36:22.832Z,2.40
2019-01-26T10:38:51.159Z,2.40
2019-01-26T10:41:26.710Z,2.13
2019-01-26T10:43:54.359Z,2.67
2019-01-26T10:46:22.855Z,2.50
2019-01-26T10:48:51.372Z,2.70
2019-01-26T10:51:18.360Z,2.43
2019-01-26T10:53:45.195Z,2.33
2019-01-26T10:56:12.139Z,2.43
2019-01-26T10:58:40.524Z,2.47
2019-01-26T11:01:09.656Z,2.67
2019-01-26T11:03:38.164Z,2.60
2019-01-26T11:06:08.945Z,2.37
2019-01-26T11:08:38.427Z,2.17
2019-01-26T11:11:07.935Z,1.93
2019-01-26T11:13:37.223Z,2.30
2019-01-26T11:16:06.663Z,2.50
2019-01-26T11:18:35.145Z,2.10
2019-01-26T11:21:03.661Z,2.60
2019-01-26T11:23:32.104Z,2.13
2019-01-26T11:26:00.610Z,2.00
2019-01-26T11:28:29.128Z,2.00
2019-01-26T11:30:57.648Z,2.27
2019-01-26T11:33:27.327Z,2.03
2019-01-26T11:35:56.941Z,2.27
2019-01-26T11:38:25.289Z,1.80
2019-01-26T11:40:54.531Z,1.83
2019-01-26T11:43:23.052Z,1.77
2019-01-26T11:46:06.479Z,2.37
2019-01-26T11:48:37.339Z,2.10
2019-01-26T11:51:07.887Z,2.37
2019-01-26T11:53:36.527Z,1.50
2019-01-26T11:56:15.811Z,2.37
2019-01-26T11:58:44.784Z,1.93
2019-01-26T12:01:29.951Z,1.90
2019-01-26T12:04:02.927Z,2.10
2019-01-26T12:06:33.574Z,2.07
2019-01-26T12:09:03.299Z,2.03
2019-01-26T12:11:32.773Z,2.30
2019-01-26T12:14:02.508Z,1.80
2019-01-26T12:16:31.764Z,1.87
2019-01-26T12:19:01.241Z,2.33
2019-01-26T12:21:30.109Z,2.20
2019-01-26T12:23:59.235Z,2.00
2019-01-26T12:26:28.752Z,2.20
2019-01-26T12:28:57.232Z,1.77
2019-01-26T12:31:26.707Z,2.73
2019-01-26T12:33:55.483Z,2.67
2019-01-26T12:36:24.719Z,2.43
2019-01-26T12:38:53.452Z,2.57
2019-01-26T12:41:22.671Z,2.20
2019-01-26T12:43:51.194Z,2.50
2019-01-26T12:46:20.656Z,2.60
2019-01-26T12:48:49.151Z,2.73
2019-01-26T12:51:18.672Z,2.40
2019-01-26T12:53:47.132Z,2.30
2019-01-26T12:56:15.663Z,2.50
2019-01-26T12:58:45.106Z,2.50
2019-01-26T13:01:13.867Z,2.37
2019-01-26T13:03:43.371Z,2.30
2019-01-26T13:06:12.875Z,2.10
2019-01-26T13:08:42.484Z,2.20
2019-01-26T13:11:11.990Z,2.27
2019-01-26T13:13:41.107Z,1.80
2019-01-26T13:16:09.627Z,2.13
2019-01-26T13:18:38.217Z,2.37
2019-01-26T13:21:06.707Z,2.10
2019-01-26T13:23:36.156Z,2.07
2019-01-26T13:26:04.664Z,3.20
2019-01-26T13:28:34.420Z,2.20
2019-01-26T13:31:03.635Z,1.73
2019-01-26T13:33:32.411Z,2.00
2019-01-26T13:36:01.661Z,2.03
2019-01-26T13:38:30.207Z,2.37
2019-01-26T13:40:59.607Z,2.20
2019-01-26T13:43:28.116Z,2.10
2019-01-26T13:45:57.627Z,2.00
2019-01-26T13:48:27.101Z,1.87
2019-01-26T13:50:55.723Z,1.60
2019-01-26T13:53:25.192Z,1.80
2019-01-26T13:55:54.971Z,2.30
2019-01-26T13:58:24.480Z,1.90
2019-01-26T14:00:53.594Z,2.47
2019-01-26T14:03:22.463Z,2.10
2019-01-26T14:05:51.728Z,2.20
2019-01-26T14:08:18.355Z,1.80
2019-01-26T14:10:47.903Z,1.70
2019-01-26T14:13:17.150Z,1.90
2019-01-26T14:15:45.987Z,1.73
2019-01-26T14:18:15.267Z,1.97
2019-01-26T14:20:43.736Z,1.60
2019-01-26T14:23:13.765Z,2.27
2019-01-26T14:25:43.855Z,2.60
2019-01-26T14:28:12.407Z,1.90
2019-01-26T14:30:40.961Z,2.27
2019-01-26T14:33:09.752Z,2.27
2019-01-26T14:35:38.871Z,2.40
2019-01-26T14:38:07.387Z,1.80
2019-01-26T14:40:36.116Z,2.07
2019-01-26T14:43:05.336Z,2.37
2019-01-26T14:45:34.224Z,2.30
2019-01-26T14:48:03.606Z,2.10
2019-01-26T14:50:32.007Z,2.00
2019-01-26T14:53:00.768Z,2.50
2019-01-26T14:55:29.472Z,2.50
2019-01-26T14:57:58.475Z,1.90
2019-01-26T15:00:33.141Z,2.27
2019-01-26T15:03:02.600Z,2.27
2019-01-26T15:05:32.159Z,2.37
2019-01-26T15:08:01.607Z,2.20
2019-01-26T15:10:30.167Z,2.13
2019-01-26T15:12:59.599Z,2.00
2019-01-26T15:15:28.459Z,1.93
2019-01-26T15:17:57.620Z,2.10
2019-01-26T15:20:30.430Z,2.00
2019-01-26T15:22:59.935Z,2.07
2019-01-26T15:25:29.263Z,2.13
2019-01-26T15:27:58.664Z,3.33
2019-01-26T15:30:27.155Z,3.33
2019-01-26T15:32:56.028Z,3.03
2019-01-26T15:35:25.419Z,3.40
2019-01-26T15:37:55.016Z,3.00
2019-01-26T15:40:24.146Z,2.60
2019-01-26T15:42:53.652Z,2.60
2019-01-26T15:45:23.203Z,2.47
2019-01-26T15:47:52.690Z,2.80
2019-01-26T15:50:22.439Z,2.20
2019-01-26T15:52:51.944Z,2.63
2019-01-26T15:55:21.223Z,2.83
2019-01-26T15:57:50.148Z,2.80
2019-01-26T16:00:19.643Z,2.70
2019-01-26T16:06:22.331Z,2.70
2019-01-26T16:08:52.376Z,3.47
2019-01-26T16:11:21.239Z,3.80
2019-01-26T16:13:50.847Z,4.13
2019-01-26T16:16:20.353Z,3.10
2019-01-26T16:18:49.958Z,4.40
2019-01-26T16:21:19.076Z,4.20
2019-01-26T16:23:47.624Z,4.93
2019-01-26T16:26:17.065Z,5.53
2019-01-26T16:28:46.567Z,6.30
2019-01-26T16:31:16.241Z,6.80
2019-01-26T16:33:45.679Z,7.00
2019-01-26T16:36:15.175Z,6.90
2019-01-26T16:38:45.067Z,5.37
2019-01-26T16:41:14.189Z,6.43
2019-01-26T16:43:43.931Z,6.20
2019-01-26T16:46:13.580Z,6.40
2019-01-26T16:48:42.768Z,5.70
2019-01-26T16:51:12.489Z,6.77
2019-01-26T16:53:41.715Z,6.50
2019-01-26T16:56:10.235Z,5.77
2019-01-26T16:58:39.723Z,6.53
2019-01-26T17:01:09.201Z,5.53
2019-01-26T17:03:38.747Z,6.40
2019-01-26T17:06:07.227Z,5.80
2019-01-26T17:08:35.867Z,5.30
2019-01-26T17:11:05.412Z,5.20
2019-01-26T17:13:35.155Z,5.67
2019-01-26T17:16:04.764Z,5.53
2019-01-26T17:18:34.168Z,5.90
2019-01-26T17:21:03.671Z,5.30
2019-01-26T17:23:32.939Z,5.00
2019-01-26T17:26:01.478Z,5.50
2019-01-26T17:28:30.091Z,5.03
2019-01-26T17:30:59.845Z,5.00
2019-01-26T17:33:29.068Z,5.00
2019-01-26T17:35:58.008Z,6.33
2019-01-26T17:38:26.451Z,5.00
2019-01-26T17:40:54.997Z,5.27
2019-01-26T17:43:24.699Z,5.60
2019-01-26T17:45:53.920Z,4.93
2019-01-26T17:48:22.447Z,4.80
2019-01-26T17:50:52.189Z,5.03
2019-01-26T17:53:21.691Z,4.73
2019-01-26T17:55:51.159Z,4.93
2019-01-26T17:58:20.623Z,4.63
2019-01-26T18:00:54.752Z,4.20
2019-01-26T18:03:24.112Z,5.00
2019-01-26T18:05:53.337Z,4.40
2019-01-26T18:08:21.968Z,4.33
2019-01-26T18:10:50.809Z,4.33
2019-01-26T18:13:20.312Z,4.20
2019-01-26T18:15:50.199Z,4.40
2019-01-26T18:18:19.326Z,4.23
2019-01-26T18:20:49.292Z,4.10
2019-01-26T18:23:21.491Z,3.87
2019-01-26T18:25:51.087Z,4.00
2019-01-26T18:28:20.684Z,4.50
2019-01-26T18:30:49.224Z,4.53
2019-01-26T18:33:18.700Z,3.20
2019-01-26T18:35:48.236Z,3.90
2019-01-26T18:38:17.100Z,3.80
2019-01-26T18:40:46.442Z,3.93
2019-01-26T18:43:16.076Z,4.00
2019-01-26T18:45:45.365Z,3.67
2019-01-26T18:48:14.808Z,3.67
2019-01-26T18:50:46.460Z,3.60
2019-01-26T18:53:16.249Z,3.60
2019-01-26T18:55:45.851Z,3.60
2019-01-26T18:58:15.115Z,3.37
2019-01-26T19:00:44.041Z,3.50
2019-01-26T19:03:13.259Z,3.27
2019-01-26T19:05:42.827Z,3.50
2019-01-26T19:08:12.656Z,3.53
2019-01-26T19:10:41.875Z,3.30
2019-01-26T19:13:11.424Z,3.33
2019-01-26T19:15:41.371Z,3.87
2019-01-26T19:18:10.592Z,3.63
2019-01-26T19:20:40.485Z,3.20
2019-01-26T19:23:09.608Z,3.40
2019-01-26T19:25:39.118Z,3.63
2019-01-26T19:28:08.655Z,3.60
2019-01-26T19:30:38.108Z,3.20
2019-01-26T19:33:07.618Z,3.27
2019-01-26T19:35:37.157Z,3.20
2019-01-26T19:38:06.659Z,3.30
2019-01-26T19:40:36.415Z,3.50
2019-01-26T19:43:05.940Z,3.17
2019-01-26T19:45:35.528Z,3.20
2019-01-26T19:48:04.885Z,3.00
2019-01-26T19:50:34.151Z,3.10
